Airfield :
LOGIN :

Register | Disclaimer

   EN    FR    IT 

 










Legend :    VFR   Marginal VFR   IFR   Intensive IFR   Very Intensive IFR
Visi :
Ceiling :
>= 8 km
>= 3000ft
5 to 8 km
1000 to 3000 ft
1500m to 5 km
500 to 1000 ft
800 to 1500m
200 to 500 ft
< 800m
< 200 ft
Symbols :   Thunderstorms  Fog  Heavy snow  Heavy precipitations  Wind > 20 kt
SIGMETs :     Misc.  Thunderstorms  Icing  Turbulence  Mountain Waves  Volcanic Ashes







- Airport Elevation : 147 ft
- IATA code : DUS


EDDL - Düsseldorf Int.

CURRENT METAR :
  • 171050Z 33007KT 310V010 9999 SCT011 BKN018 18/16 Q1018 NOSIG

EXPIRED METARs :
  • 171020Z 35005KT 330V030 9999 SCT007 BKN012 19/16 Q1018 TEMPO SCT012
  • 170950Z 36005KT 9999 FEW008 BKN014 18/16 Q1018 NOSIG
  • 170920Z 32006KT 9999 FEW008 BKN013 17/16 Q1018 TEMPO BKN008
  • 170850Z 30006KT 270V330 9999 -DZ SCT007 BKN012 BKN018 17/16 Q1018 TEMPO BKN008
  • 170820Z 30005KT 260V320 9999 FEW005 SCT007 BKN020 18/16 Q1017 TEMPO BKN008

TAF AMD TAF EDDL
Valid from the 17 at 08:00 until the 18 at 12:00 UTC


170832Z 1708/1812 33004KT 9999 SCT030
TEMPO 1708/1711 BKN008
BECMG 1806/1809 23007KT
No reported NOTAMs for that airfield.



MET'MAP, your aeronautical weather chart ! - Copyright ORBIFLY December 2007 - Disclaimer

ORBIFLY MET'MAP TEAM :

Programming & Development : Alexandra Zaïnal
Concept & Development : Baudouin d'Aumeries
Co-Development & Prog : Marc-Olivier Méhu
Technical & hardware support : Manuel Goepfert

Contact : metmap@orbifly.com




SOURCES & CREDITS :

   NOAA